sensor_id;sensor_type;location;lat;lon;timestamp;noise_LAeq;noise_LA_min;noise_LA_max;noise_LA01;noise_LA95
43385;Laerm;28988;48.042;7.584;2023-03-12T00:01:46;90.14;-37.56;98.60;;
43385;Laerm;28988;48.042;7.584;2023-03-12T00:04:11;90.13;-42.24;98.60;;
43385;Laerm;28988;48.042;7.584;2023-03-12T00:06:36;90.14;-37.56;98.60;;
43385;Laerm;28988;48.042;7.584;2023-03-12T00:09:02;90.13;-36.41;98.60;;
43385;Laerm;28988;48.042;7.584;2023-03-12T00:11:28;90.14;-42.24;98.60;;
43385;Laerm;28988;48.042;7.584;2023-03-12T00:13:54;90.14;-42.24;98.60;;
43385;Laerm;28988;48.042;7.584;2023-03-12T00:16:20;90.14;-22.78;98.60;;
43385;Laerm;28988;48.042;7.584;2023-03-12T00:18:49;90.14;-37.56;98.60;;
43385;Laerm;28988;48.042;7.584;2023-03-12T00:21:15;90.14;-42.24;98.60;;
43385;Laerm;28988;48.042;7.584;2023-03-12T00:23:40;90.14;-42.24;98.60;;
43385;Laerm;28988;48.042;7.584;2023-03-12T00:26:06;90.14;-37.56;98.60;;
43385;Laerm;28988;48.042;7.584;2023-03-12T00:28:32;90.14;-37.56;98.60;;
43385;Laerm;28988;48.042;7.584;2023-03-12T00:30:59;90.14;-36.41;98.60;;
43385;Laerm;28988;48.042;7.584;2023-03-12T00:33:24;90.13;-42.24;98.60;;
43385;Laerm;28988;48.042;7.584;2023-03-12T00:35:50;90.14;-42.24;98.60;;
43385;Laerm;28988;48.042;7.584;2023-03-12T00:38:15;90.14;-42.24;98.60;;
43385;Laerm;28988;48.042;7.584;2023-03-12T00:40:41;90.14;-37.56;98.60;;
43385;Laerm;28988;48.042;7.584;2023-03-12T00:43:06;90.14;-36.41;98.60;;
43385;Laerm;28988;48.042;7.584;2023-03-12T00:45:31;90.13;-36.41;98.60;;
43385;Laerm;28988;48.042;7.584;2023-03-12T00:47:56;90.14;-37.56;98.60;;
43385;Laerm;28988;48.042;7.584;2023-03-12T00:50:21;90.14;-42.24;98.60;;
43385;Laerm;28988;48.042;7.584;2023-03-12T00:52:46;90.14;-16.02;98.60;;
43385;Laerm;28988;48.042;7.584;2023-03-12T00:55:12;90.13;-16.02;98.60;;
43385;Laerm;28988;48.042;7.584;2023-03-12T00:57:37;90.14;-42.24;98.60;;
43385;Laerm;28988;48.042;7.584;2023-03-12T01:00:03;90.14;-37.56;98.60;;
43385;Laerm;28988;48.042;7.584;2023-03-12T01:02:33;90.13;-37.56;98.60;;
43385;Laerm;28988;48.042;7.584;2023-03-12T01:04:59;90.14;-42.24;98.60;;
43385;Laerm;28988;48.042;7.584;2023-03-12T01:07:24;90.14;-37.56;98.60;;
43385;Laerm;28988;48.042;7.584;2023-03-12T01:09:49;90.13;-17.33;98.60;;
43385;Laerm;28988;48.042;7.584;2023-03-12T01:12:14;90.14;-36.41;98.60;;
43385;Laerm;28988;48.042;7.584;2023-03-12T01:14:39;90.14;-37.56;98.60;;
43385;Laerm;28988;48.042;7.584;2023-03-12T01:17:04;90.13;-42.24;98.60;;
43385;Laerm;28988;48.042;7.584;2023-03-12T01:19:29;90.14;-42.24;98.60;;
43385;Laerm;28988;48.042;7.584;2023-03-12T01:21:55;90.13;-37.56;98.60;;
43385;Laerm;28988;48.042;7.584;2023-03-12T01:24:20;90.14;-42.24;98.60;;
43385;Laerm;28988;48.042;7.584;2023-03-12T01:26:45;90.13;-37.56;98.60;;
43385;Laerm;28988;48.042;7.584;2023-03-12T01:29:10;90.14;-36.41;98.60;;
43385;Laerm;28988;48.042;7.584;2023-03-12T01:31:36;90.14;-37.56;98.60;;
43385;Laerm;28988;48.042;7.584;2023-03-12T01:34:01;90.14;-42.24;98.60;;
43385;Laerm;28988;48.042;7.584;2023-03-12T01:36:28;90.13;-37.56;98.60;;
43385;Laerm;28988;48.042;7.584;2023-03-12T01:38:54;90.14;-37.56;98.60;;
43385;Laerm;28988;48.042;7.584;2023-03-12T01:41:20;90.14;-37.56;98.60;;
43385;Laerm;28988;48.042;7.584;2023-03-12T01:43:46;90.14;-37.56;98.60;;
43385;Laerm;28988;48.042;7.584;2023-03-12T01:46:30;90.13;-36.41;98.60;;
43385;Laerm;28988;48.042;7.584;2023-03-12T01:49:09;90.14;-37.56;98.60;;
43385;Laerm;28988;48.042;7.584;2023-03-12T01:51:37;90.14;-42.24;98.60;;
43385;Laerm;28988;48.042;7.584;2023-03-12T01:54:04;90.13;-42.24;98.60;;
43385;Laerm;28988;48.042;7.584;2023-03-12T01:56:32;90.14;-37.56;98.60;;
43385;Laerm;28988;48.042;7.584;2023-03-12T01:58:58;90.14;-37.56;98.60;;
43385;Laerm;28988;48.042;7.584;2023-03-12T02:01:24;90.14;-16.02;98.60;;
43385;Laerm;28988;48.042;7.584;2023-03-12T02:03:50;90.14;-16.02;98.60;;
43385;Laerm;28988;48.042;7.584;2023-03-12T02:06:18;90.13;-42.24;98.60;;
43385;Laerm;28988;48.042;7.584;2023-03-12T02:08:45;90.13;-37.56;98.60;;
43385;Laerm;28988;48.042;7.584;2023-03-12T02:11:11;90.14;-42.24;98.60;;
43385;Laerm;28988;48.042;7.584;2023-03-12T02:13:37;90.13;-37.56;98.60;;
43385;Laerm;28988;48.042;7.584;2023-03-12T02:16:03;90.14;-21.54;98.60;;
43385;Laerm;28988;48.042;7.584;2023-03-12T02:18:28;90.13;-42.24;98.60;;
43385;Laerm;28988;48.042;7.584;2023-03-12T02:23:28;90.14;-42.24;98.60;;
43385;Laerm;28988;48.042;7.584;2023-03-12T02:25:55;90.13;-42.24;98.60;;
43385;Laerm;28988;48.042;7.584;2023-03-12T02:28:21;90.14;-42.24;98.60;;
43385;Laerm;28988;48.042;7.584;2023-03-12T02:30:49;90.14;-17.33;98.60;;
43385;Laerm;28988;48.042;7.584;2023-03-12T02:33:15;90.13;-36.41;98.60;;
43385;Laerm;28988;48.042;7.584;2023-03-12T02:35:40;90.14;-42.24;98.60;;
43385;Laerm;28988;48.042;7.584;2023-03-12T02:40:50;90.14;-21.54;98.60;;
43385;Laerm;28988;48.042;7.584;2023-03-12T02:43:15;90.13;-42.24;98.60;;
43385;Laerm;28988;48.042;7.584;2023-03-12T02:45:42;90.14;-42.24;98.60;;
43385;Laerm;28988;48.042;7.584;2023-03-12T02:48:07;90.13;-37.56;98.60;;
43385;Laerm;28988;48.042;7.584;2023-03-12T02:50:33;90.13;-16.02;98.60;;
43385;Laerm;28988;48.042;7.584;2023-03-12T02:52:58;90.13;-42.24;98.60;;
43385;Laerm;28988;48.042;7.584;2023-03-12T02:55:23;90.14;-37.56;98.60;;
43385;Laerm;28988;48.042;7.584;2023-03-12T02:57:48;90.14;-37.56;98.60;;
43385;Laerm;28988;48.042;7.584;2023-03-12T03:00:14;90.14;-37.56;98.60;;
43385;Laerm;28988;48.042;7.584;2023-03-12T03:02:40;90.13;-16.02;98.60;;
43385;Laerm;28988;48.042;7.584;2023-03-12T03:05:06;90.14;-36.41;98.60;;
43385;Laerm;28988;48.042;7.584;2023-03-12T03:07:32;90.14;-37.56;98.60;;
43385;Laerm;28988;48.042;7.584;2023-03-12T03:09:57;90.14;-42.24;98.60;;
43385;Laerm;28988;48.042;7.584;2023-03-12T03:12:28;90.14;-36.41;98.60;;
43385;Laerm;28988;48.042;7.584;2023-03-12T03:14:53;90.13;-42.24;98.60;;
43385;Laerm;28988;48.042;7.584;2023-03-12T03:17:18;90.14;-42.24;98.60;;
43385;Laerm;28988;48.042;7.584;2023-03-12T03:19:43;90.14;-36.41;98.60;;
43385;Laerm;28988;48.042;7.584;2023-03-12T03:22:09;90.13;-37.56;98.60;;
43385;Laerm;28988;48.042;7.584;2023-03-12T03:24:34;90.14;-42.24;98.60;;
43385;Laerm;28988;48.042;7.584;2023-03-12T03:27:00;90.14;-42.24;98.60;;
43385;Laerm;28988;48.042;7.584;2023-03-12T03:29:25;90.13;-36.41;98.60;;
43385;Laerm;28988;48.042;7.584;2023-03-12T03:31:50;90.14;-42.24;98.60;;
43385;Laerm;28988;48.042;7.584;2023-03-12T03:34:15;90.14;-21.54;98.60;;
43385;Laerm;28988;48.042;7.584;2023-03-12T03:36:40;90.13;-37.56;98.60;;
43385;Laerm;28988;48.042;7.584;2023-03-12T03:39:06;90.14;-42.24;98.60;;
43385;Laerm;28988;48.042;7.584;2023-03-12T03:41:31;90.14;-42.24;98.60;;
43385;Laerm;28988;48.042;7.584;2023-03-12T03:43:59;90.14;-17.33;98.60;;
43385;Laerm;28988;48.042;7.584;2023-03-12T03:46:24;90.13;-42.24;98.60;;
43385;Laerm;28988;48.042;7.584;2023-03-12T03:48:49;90.14;-36.41;98.60;;
43385;Laerm;28988;48.042;7.584;2023-03-12T03:51:15;90.14;-36.41;98.60;;
43385;Laerm;28988;48.042;7.584;2023-03-12T03:53:40;90.14;-21.54;98.60;;
43385;Laerm;28988;48.042;7.584;2023-03-12T03:56:09;90.13;-37.56;98.60;;
43385;Laerm;28988;48.042;7.584;2023-03-12T03:58:34;90.14;-17.33;98.60;;
43385;Laerm;28988;48.042;7.584;2023-03-12T04:01:00;90.13;-42.24;98.60;;
43385;Laerm;28988;48.042;7.584;2023-03-12T04:03:25;90.14;-37.56;98.60;;
43385;Laerm;28988;48.042;7.584;2023-03-12T04:05:57;90.13;-37.56;98.60;;
43385;Laerm;28988;48.042;7.584;2023-03-12T04:08:23;90.13;-16.02;98.60;;
43385;Laerm;28988;48.042;7.584;2023-03-12T04:10:48;90.12;-14.85;98.60;;
43385;Laerm;28988;48.042;7.584;2023-03-12T04:13:13;90.13;-14.85;98.60;;
43385;Laerm;28988;48.042;7.584;2023-03-12T04:15:44;90.13;-42.24;98.60;;
43385;Laerm;28988;48.042;7.584;2023-03-12T04:18:09;90.13;-16.02;98.60;;
43385;Laerm;28988;48.042;7.584;2023-03-12T04:20:34;90.13;-16.02;98.60;;
43385;Laerm;28988;48.042;7.584;2023-03-12T04:23:00;90.13;-17.33;98.60;;
43385;Laerm;28988;48.042;7.584;2023-03-12T04:25:25;90.13;-37.56;98.60;;
43385;Laerm;28988;48.042;7.584;2023-03-12T04:27:50;90.13;-16.02;98.60;;
43385;Laerm;28988;48.042;7.584;2023-03-12T04:30:15;90.12;-16.02;98.60;;
43385;Laerm;28988;48.042;7.584;2023-03-12T04:32:40;90.13;-16.02;98.60;;
43385;Laerm;28988;48.042;7.584;2023-03-12T04:35:06;90.13;-14.85;98.60;;
43385;Laerm;28988;48.042;7.584;2023-03-12T04:37:32;90.13;-14.66;98.60;;
43385;Laerm;28988;48.042;7.584;2023-03-12T04:39:57;90.13;-12.84;98.60;;
43385;Laerm;28988;48.042;7.584;2023-03-12T04:42:23;90.12;-14.85;98.60;;
43385;Laerm;28988;48.042;7.584;2023-03-12T04:44:49;90.13;-14.66;98.60;;
43385;Laerm;28988;48.042;7.584;2023-03-12T04:47:16;90.13;-42.24;98.60;;
43385;Laerm;28988;48.042;7.584;2023-03-12T04:49:41;90.13;-17.33;98.60;;
43385;Laerm;28988;48.042;7.584;2023-03-12T04:52:06;90.14;-17.33;98.60;;
43385;Laerm;28988;48.042;7.584;2023-03-12T04:54:32;90.13;-14.85;98.60;;
43385;Laerm;28988;48.042;7.584;2023-03-12T04:56:58;90.13;-14.66;98.60;;
43385;Laerm;28988;48.042;7.584;2023-03-12T04:59:23;90.14;-16.02;98.60;;
43385;Laerm;28988;48.042;7.584;2023-03-12T05:01:48;90.13;-37.56;98.60;;
43385;Laerm;28988;48.042;7.584;2023-03-12T05:04:13;90.13;-42.24;98.60;;
43385;Laerm;28988;48.042;7.584;2023-03-12T05:06:38;90.14;-42.24;98.60;;
43385;Laerm;28988;48.042;7.584;2023-03-12T05:09:04;90.13;-37.56;98.60;;
43385;Laerm;28988;48.042;7.584;2023-03-12T05:11:29;90.14;-37.56;98.60;;
43385;Laerm;28988;48.042;7.584;2023-03-12T05:13:54;90.13;-21.54;98.60;;
43385;Laerm;28988;48.042;7.584;2023-03-12T05:16:19;90.13;-42.24;98.60;;
43385;Laerm;28988;48.042;7.584;2023-03-12T05:18:45;90.13;-16.02;98.60;;
43385;Laerm;28988;48.042;7.584;2023-03-12T05:21:12;90.13;-22.78;98.60;;
43385;Laerm;28988;48.042;7.584;2023-03-12T05:23:38;90.13;-37.56;98.60;;
43385;Laerm;28988;48.042;7.584;2023-03-12T05:26:04;90.13;-42.24;98.60;;
43385;Laerm;28988;48.042;7.584;2023-03-12T05:28:29;90.13;-17.33;98.60;;
43385;Laerm;28988;48.042;7.584;2023-03-12T05:30:55;90.14;-16.02;98.60;;
43385;Laerm;28988;48.042;7.584;2023-03-12T05:33:20;90.13;-14.85;98.60;;
43385;Laerm;28988;48.042;7.584;2023-03-12T05:35:46;90.13;-14.85;98.60;;
43385;Laerm;28988;48.042;7.584;2023-03-12T05:38:11;90.13;-16.02;98.60;;
43385;Laerm;28988;48.042;7.584;2023-03-12T05:40:36;90.14;-36.41;98.60;;
43385;Laerm;28988;48.042;7.584;2023-03-12T05:43:01;90.13;-17.33;98.60;;
43385;Laerm;28988;48.042;7.584;2023-03-12T05:45:26;90.13;-14.66;98.60;;
43385;Laerm;28988;48.042;7.584;2023-03-12T05:47:52;90.13;-16.02;98.60;;
43385;Laerm;28988;48.042;7.584;2023-03-12T05:50:17;90.14;-37.56;98.60;;
43385;Laerm;28988;48.042;7.584;2023-03-12T05:52:42;90.13;-37.56;98.60;;
43385;Laerm;28988;48.042;7.584;2023-03-12T05:55:07;90.13;-16.02;98.60;;
43385;Laerm;28988;48.042;7.584;2023-03-12T05:57:33;90.13;-37.56;98.60;;
43385;Laerm;28988;48.042;7.584;2023-03-12T05:59:58;90.13;-16.02;98.60;;
43385;Laerm;28988;48.042;7.584;2023-03-12T06:02:23;90.14;-14.85;98.60;;
43385;Laerm;28988;48.042;7.584;2023-03-12T06:04:48;90.13;-16.02;98.60;;
43385;Laerm;28988;48.042;7.584;2023-03-12T06:07:13;90.13;-16.02;98.60;;
43385;Laerm;28988;48.042;7.584;2023-03-12T06:09:39;90.13;-17.33;98.60;;
43385;Laerm;28988;48.042;7.584;2023-03-12T06:12:04;90.13;-42.24;98.60;;
43385;Laerm;28988;48.042;7.584;2023-03-12T06:14:29;90.13;-36.41;98.60;;
43385;Laerm;28988;48.042;7.584;2023-03-12T06:16:54;90.14;-16.02;98.60;;
43385;Laerm;28988;48.042;7.584;2023-03-12T06:19:19;90.13;-17.33;98.60;;
43385;Laerm;28988;48.042;7.584;2023-03-12T06:21:45;90.13;-42.24;98.60;;
43385;Laerm;28988;48.042;7.584;2023-03-12T06:24:10;90.13;-21.54;98.60;;
43385;Laerm;28988;48.042;7.584;2023-03-12T06:26:35;90.13;-37.56;98.60;;
43385;Laerm;28988;48.042;7.584;2023-03-12T06:29:00;90.13;-42.24;98.60;;
43385;Laerm;28988;48.042;7.584;2023-03-12T06:31:26;90.13;-16.02;98.60;;
43385;Laerm;28988;48.042;7.584;2023-03-12T06:33:51;90.13;-37.56;98.60;;
43385;Laerm;28988;48.042;7.584;2023-03-12T06:36:17;90.13;-17.33;98.60;;
43385;Laerm;28988;48.042;7.584;2023-03-12T06:38:42;90.13;-16.02;98.60;;
43385;Laerm;28988;48.042;7.584;2023-03-12T06:41:10;90.13;-37.56;98.60;;
43385;Laerm;28988;48.042;7.584;2023-03-12T06:43:35;90.14;-15.25;98.60;;
43385;Laerm;28988;48.042;7.584;2023-03-12T06:46:01;90.13;-37.56;98.60;;
43385;Laerm;28988;48.042;7.584;2023-03-12T06:48:28;90.13;-15.33;98.60;;
43385;Laerm;28988;48.042;7.584;2023-03-12T06:50:53;90.13;-37.56;98.60;;
43385;Laerm;28988;48.042;7.584;2023-03-12T06:53:19;90.13;-42.24;98.60;;
43385;Laerm;28988;48.042;7.584;2023-03-12T06:55:44;90.13;-37.56;98.60;;
43385;Laerm;28988;48.042;7.584;2023-03-12T06:58:10;90.13;-14.66;98.60;;
43385;Laerm;28988;48.042;7.584;2023-03-12T07:00:35;90.13;-37.56;98.60;;
43385;Laerm;28988;48.042;7.584;2023-03-12T07:03:00;90.14;-14.85;98.60;;
43385;Laerm;28988;48.042;7.584;2023-03-12T07:06:01;90.13;-14.85;98.60;;
43385;Laerm;28988;48.042;7.584;2023-03-12T07:08:27;90.13;-16.02;98.60;;
43385;Laerm;28988;48.042;7.584;2023-03-12T07:10:56;90.13;-16.02;98.60;;
43385;Laerm;28988;48.042;7.584;2023-03-12T07:13:21;90.13;-17.33;98.60;;
43385;Laerm;28988;48.042;7.584;2023-03-12T07:16:14;90.13;-16.02;98.60;;
43385;Laerm;28988;48.042;7.584;2023-03-12T07:18:39;90.13;-17.33;98.60;;
43385;Laerm;28988;48.042;7.584;2023-03-12T07:21:04;90.13;-37.56;98.60;;
43385;Laerm;28988;48.042;7.584;2023-03-12T07:23:30;90.12;-14.66;98.60;;
43385;Laerm;28988;48.042;7.584;2023-03-12T07:25:55;90.13;-17.33;98.60;;
43385;Laerm;28988;48.042;7.584;2023-03-12T07:28:20;90.13;-16.02;98.60;;
43385;Laerm;28988;48.042;7.584;2023-03-12T07:30:46;90.13;-17.33;98.60;;
43385;Laerm;28988;48.042;7.584;2023-03-12T07:33:15;90.13;-14.85;98.60;;
43385;Laerm;28988;48.042;7.584;2023-03-12T07:35:40;90.13;-17.33;98.66;;
43385;Laerm;28988;48.042;7.584;2023-03-12T07:38:06;90.13;-21.54;98.60;;
43385;Laerm;28988;48.042;7.584;2023-03-12T07:40:31;90.13;-37.56;98.60;;
43385;Laerm;28988;48.042;7.584;2023-03-12T07:42:56;90.13;-14.66;98.60;;
43385;Laerm;28988;48.042;7.584;2023-03-12T07:45:22;90.13;-17.33;98.60;;
43385;Laerm;28988;48.042;7.584;2023-03-12T07:47:47;90.13;-16.02;98.60;;
43385;Laerm;28988;48.042;7.584;2023-03-12T07:50:16;90.13;-17.33;98.60;;
43385;Laerm;28988;48.042;7.584;2023-03-12T07:52:42;90.13;-17.33;98.66;;
43385;Laerm;28988;48.042;7.584;2023-03-12T07:55:07;90.13;-14.85;98.60;;
43385;Laerm;28988;48.042;7.584;2023-03-12T07:57:32;90.13;-22.78;98.66;;
43385;Laerm;28988;48.042;7.584;2023-03-12T07:59:58;90.14;-16.02;98.70;;
43385;Laerm;28988;48.042;7.584;2023-03-12T08:02:23;90.14;-18.43;98.86;;
43385;Laerm;28988;48.042;7.584;2023-03-12T08:04:48;90.13;-14.85;98.86;;
43385;Laerm;28988;48.042;7.584;2023-03-12T08:07:13;90.14;-17.33;98.81;;
43385;Laerm;28988;48.042;7.584;2023-03-12T08:09:39;90.13;-29.68;98.76;;
43385;Laerm;28988;48.042;7.584;2023-03-12T08:12:05;90.14;-24.86;98.71;;
43385;Laerm;28988;48.042;7.584;2023-03-12T08:14:31;90.14;-21.54;98.86;;
43385;Laerm;28988;48.042;7.584;2023-03-12T08:16:59;90.15;-14.85;98.81;;
43385;Laerm;28988;48.042;7.584;2023-03-12T08:19:25;90.15;-21.54;98.85;;
43385;Laerm;28988;48.042;7.584;2023-03-12T08:21:50;90.15;-28.28;98.78;;
43385;Laerm;28988;48.042;7.584;2023-03-12T08:24:17;90.17;-40.49;98.88;;
43385;Laerm;28988;48.042;7.584;2023-03-12T08:26:42;90.18;-20.23;98.90;;
43385;Laerm;28988;48.042;7.584;2023-03-12T08:29:08;90.23;-27.09;99.26;;
43385;Laerm;28988;48.042;7.584;2023-03-12T08:31:33;90.29;-47.37;99.30;;
43385;Laerm;28988;48.042;7.584;2023-03-12T08:33:59;90.27;-33.08;99.27;;
43385;Laerm;28988;48.042;7.584;2023-03-12T08:36:24;90.29;-23.55;99.09;;
43385;Laerm;28988;48.042;7.584;2023-03-12T08:38:49;90.30;-41.08;99.33;;
43385;Laerm;28988;48.042;7.584;2023-03-12T08:41:14;90.36;-15.33;99.13;;
43385;Laerm;28988;48.042;7.584;2023-03-12T08:43:39;90.42;-20.09;99.42;;
43385;Laerm;28988;48.042;7.584;2023-03-12T08:46:04;90.55;-28.99;99.36;;
43385;Laerm;28988;48.042;7.584;2023-03-12T08:48:30;90.79;-31.13;99.63;;
43385;Laerm;28988;48.042;7.584;2023-03-12T08:50:56;91.13;-46.56;99.87;;
43385;Laerm;28988;48.042;7.584;2023-03-12T08:53:22;91.46;-23.81;99.83;;
43385;Laerm;28988;48.042;7.584;2023-03-12T08:55:47;91.67;-43.73;100.35;;
43385;Laerm;28988;48.042;7.584;2023-03-12T08:58:12;92.12;-28.86;100.38;;
43385;Laerm;28988;48.042;7.584;2023-03-12T09:00:38;92.90;-23.36;100.78;;
43385;Laerm;28988;48.042;7.584;2023-03-12T09:03:03;93.67;-30.56;101.07;;
43385;Laerm;28988;48.042;7.584;2023-03-12T09:05:28;94.96;-35.64;101.57;;
43385;Laerm;28988;48.042;7.584;2023-03-12T09:07:54;97.46;-21.36;103.85;;
43385;Laerm;28988;48.042;7.584;2023-03-12T09:10:19;100.62;-20.21;105.33;;
43385;Laerm;28988;48.042;7.584;2023-03-12T09:12:44;100.54;-24.42;105.53;;
43385;Laerm;28988;48.042;7.584;2023-03-12T09:15:09;97.01;-57.96;105.16;;
43385;Laerm;28988;48.042;7.584;2023-03-12T09:17:35;90.50;-36.17;103.08;;
43385;Laerm;28988;48.042;7.584;2023-03-12T09:20:00;87.82;-31.76;100.68;;
43385;Laerm;28988;48.042;7.584;2023-03-12T09:22:25;86.90;-30.89;99.60;;
43385;Laerm;28988;48.042;7.584;2023-03-12T09:24:53;86.17;-59.49;97.91;;
43385;Laerm;28988;48.042;7.584;2023-03-12T09:27:18;86.13;-32.90;98.50;;
43385;Laerm;28988;48.042;7.584;2023-03-12T09:29:43;86.92;-30.80;99.12;;
43385;Laerm;28988;48.042;7.584;2023-03-12T09:32:09;88.13;-30.95;100.05;;
43385;Laerm;28988;48.042;7.584;2023-03-12T09:34:34;87.47;-17.15;99.76;;
43385;Laerm;28988;48.042;7.584;2023-03-12T09:36:59;85.32;-25.19;97.09;;
43385;Laerm;28988;48.042;7.584;2023-03-12T09:39:24;84.43;-32.54;95.52;;
43385;Laerm;28988;48.042;7.584;2023-03-12T09:41:49;84.36;-39.78;95.74;;
43385;Laerm;28988;48.042;7.584;2023-03-12T09:44:17;84.34;-57.68;95.58;;
43385;Laerm;28988;48.042;7.584;2023-03-12T09:46:49;84.32;-53.57;95.25;;
43385;Laerm;28988;48.042;7.584;2023-03-12T09:49:21;84.31;-23.73;95.29;;
43385;Laerm;28988;48.042;7.584;2023-03-12T09:51:51;84.30;-33.70;95.19;;
43385;Laerm;28988;48.042;7.584;2023-03-12T09:54:23;84.33;-33.10;95.52;;
43385;Laerm;28988;48.042;7.584;2023-03-12T09:56:50;84.33;-25.08;96.14;;
43385;Laerm;28988;48.042;7.584;2023-03-12T09:59:16;84.36;-33.90;95.58;;
43385;Laerm;28988;48.042;7.584;2023-03-12T10:01:55;84.44;-57.68;96.36;;
43385;Laerm;28988;48.042;7.584;2023-03-12T10:04:35;84.79;-43.99;96.14;;
43385;Laerm;28988;48.042;7.584;2023-03-12T10:11:57;88.62;-38.82;99.33;;
43385;Laerm;28988;48.042;7.584;2023-03-12T10:14:46;90.43;-14.29;103.73;;
43385;Laerm;28988;48.042;7.584;2023-03-12T10:17:22;91.39;-20.18;102.78;;
43385;Laerm;28988;48.042;7.584;2023-03-12T10:22:54;86.25;-27.33;98.55;;
43385;Laerm;28988;48.042;7.584;2023-03-12T10:25:40;84.58;-36.65;95.75;;
43385;Laerm;28988;48.042;7.584;2023-03-12T10:28:11;84.36;-35.50;95.85;;
43385;Laerm;28988;48.042;7.584;2023-03-12T10:30:39;84.32;-23.73;95.68;;
43385;Laerm;28988;48.042;7.584;2023-03-12T10:33:05;84.31;-23.73;95.47;;
43385;Laerm;28988;48.042;7.584;2023-03-12T10:35:34;84.27;-23.73;95.19;;
43385;Laerm;28988;48.042;7.584;2023-03-12T10:38:01;84.27;-23.73;94.74;;
43385;Laerm;28988;48.042;7.584;2023-03-12T10:40:27;84.25;-22.68;94.93;;
43385;Laerm;28988;48.042;7.584;2023-03-12T10:42:53;84.21;-57.68;94.13;;
43385;Laerm;28988;48.042;7.584;2023-03-12T10:47:54;84.19;-33.10;94.35;;
43385;Laerm;28988;48.042;7.584;2023-03-12T10:50:27;84.17;-31.18;93.96;;
43385;Laerm;28988;48.042;7.584;2023-03-12T10:53:11;84.16;-57.68;93.80;;
43385;Laerm;28988;48.042;7.584;2023-03-12T10:55:37;84.16;-57.68;93.70;;
43385;Laerm;28988;48.042;7.584;2023-03-12T10:58:02;84.17;-28.29;93.81;;
43385;Laerm;28988;48.042;7.584;2023-03-12T11:00:28;84.17;-57.68;93.80;;
43385;Laerm;28988;48.042;7.584;2023-03-12T11:02:58;84.18;-33.10;94.24;;
43385;Laerm;28988;48.042;7.584;2023-03-12T11:05:44;84.17;-34.16;93.80;;
43385;Laerm;28988;48.042;7.584;2023-03-12T11:10:44;84.16;-33.10;93.53;;
43385;Laerm;28988;48.042;7.584;2023-03-12T11:13:29;84.16;-57.68;93.73;;
43385;Laerm;28988;48.042;7.584;2023-03-12T11:15:57;84.17;-22.86;93.94;;
43385;Laerm;28988;48.042;7.584;2023-03-12T11:20:49;84.22;-57.68;94.51;;
43385;Laerm;28988;48.042;7.584;2023-03-12T11:23:20;84.25;-28.29;94.85;;
43385;Laerm;28988;48.042;7.584;2023-03-12T11:26:20;84.25;-37.26;95.42;;
43385;Laerm;28988;48.042;7.584;2023-03-12T11:28:38;84.27;-57.68;95.57;;
43385;Laerm;28988;48.042;7.584;2023-03-12T11:31:06;84.31;-41.54;95.07;;
43385;Laerm;28988;48.042;7.584;2023-03-12T11:33:32;84.35;-28.29;95.75;;
43385;Laerm;28988;48.042;7.584;2023-03-12T11:39:09;84.33;-29.16;95.39;;
43385;Laerm;28988;48.042;7.584;2023-03-12T11:41:28;84.34;-27.57;95.61;;
43385;Laerm;28988;48.042;7.584;2023-03-12T11:46:43;84.37;-29.63;95.96;;
43385;Laerm;28988;48.042;7.584;2023-03-12T11:49:20;84.41;-57.68;96.47;;
43385;Laerm;28988;48.042;7.584;2023-03-12T11:51:52;84.45;-31.18;95.77;;
43385;Laerm;28988;48.042;7.584;2023-03-12T11:59:40;84.38;-33.10;95.68;;
43385;Laerm;28988;48.042;7.584;2023-03-12T12:02:20;84.36;-28.29;95.85;;
43385;Laerm;28988;48.042;7.584;2023-03-12T12:22:52;84.36;-28.29;95.61;;
43385;Laerm;28988;48.042;7.584;2023-03-12T12:25:23;84.39;-32.88;95.67;;
43385;Laerm;28988;48.042;7.584;2023-03-12T12:30:21;84.48;-27.85;95.99;;
43385;Laerm;28988;48.042;7.584;2023-03-12T12:35:35;84.64;-41.54;96.25;;
43385;Laerm;28988;48.042;7.584;2023-03-12T12:40:40;85.26;-39.66;97.68;;
43385;Laerm;28988;48.042;7.584;2023-03-12T12:45:52;85.94;-42.30;96.91;;
43385;Laerm;28988;48.042;7.584;2023-03-12T12:48:20;85.77;-40.75;97.34;;
43385;Laerm;28988;48.042;7.584;2023-03-12T12:50:46;85.39;-61.97;95.78;;
43385;Laerm;28988;48.042;7.584;2023-03-12T12:55:50;84.58;-53.06;96.06;;
43385;Laerm;28988;48.042;7.584;2023-03-12T12:58:22;84.37;-57.68;95.92;;
43385;Laerm;28988;48.042;7.584;2023-03-12T13:00:53;84.29;-57.68;95.54;;
43385;Laerm;28988;48.042;7.584;2023-03-12T13:03:20;84.24;-28.29;94.92;;
43385;Laerm;28988;48.042;7.584;2023-03-12T13:05:56;84.20;-57.68;93.98;;
43385;Laerm;28988;48.042;7.584;2023-03-12T13:08:32;84.18;-57.68;94.13;;
43385;Laerm;28988;48.042;7.584;2023-03-12T13:10:58;84.17;-28.29;93.51;;
43385;Laerm;28988;48.042;7.584;2023-03-12T13:13:27;84.17;-28.29;94.58;;
43385;Laerm;28988;48.042;7.584;2023-03-12T13:16:00;84.16;-33.10;93.53;;
43385;Laerm;28988;48.042;7.584;2023-03-12T13:18:37;84.16;-45.06;93.84;;
43385;Laerm;28988;48.042;7.584;2023-03-12T13:21:10;84.16;-28.29;93.83;;
43385;Laerm;28988;48.042;7.584;2023-03-12T13:26:06;84.18;-57.68;93.93;;
43385;Laerm;28988;48.042;7.584;2023-03-12T13:28:37;84.21;-43.46;94.39;;
43385;Laerm;28988;48.042;7.584;2023-03-12T13:33:48;84.23;-57.68;94.81;;
43385;Laerm;28988;48.042;7.584;2023-03-12T13:38:53;84.20;-57.68;94.30;;
43385;Laerm;28988;48.042;7.584;2023-03-12T13:41:32;84.18;-28.29;93.84;;
43385;Laerm;28988;48.042;7.584;2023-03-12T13:43:59;84.17;-28.29;94.00;;
43385;Laerm;28988;48.042;7.584;2023-03-12T13:46:28;84.18;-23.73;94.29;;
43385;Laerm;28988;48.042;7.584;2023-03-12T13:48:59;84.18;-28.29;94.26;;
43385;Laerm;28988;48.042;7.584;2023-03-12T13:51:27;84.17;-57.68;93.83;;
43385;Laerm;28988;48.042;7.584;2023-03-12T13:53:53;84.18;-33.10;93.36;;
43385;Laerm;28988;48.042;7.584;2023-03-12T13:56:20;84.17;-23.73;93.67;;
43385;Laerm;28988;48.042;7.584;2023-03-12T13:58:54;84.17;-34.16;93.53;;
43385;Laerm;28988;48.042;7.584;2023-03-12T14:01:20;84.16;-57.68;93.96;;
43385;Laerm;28988;48.042;7.584;2023-03-12T14:03:49;84.17;-57.68;94.65;;
43385;Laerm;28988;48.042;7.584;2023-03-12T14:06:17;84.17;-43.20;93.84;;
43385;Laerm;28988;48.042;7.584;2023-03-12T14:11:17;84.18;-23.73;93.99;;
43385;Laerm;28988;48.042;7.584;2023-03-12T14:16:34;84.16;-23.73;94.01;;
43385;Laerm;28988;48.042;7.584;2023-03-12T14:19:02;84.18;-57.68;93.71;;
43385;Laerm;28988;48.042;7.584;2023-03-12T14:21:30;84.19;-57.68;93.78;;
43385;Laerm;28988;48.042;7.584;2023-03-12T14:23:57;84.21;-57.68;94.12;;
43385;Laerm;28988;48.042;7.584;2023-03-12T14:26:24;84.23;-57.68;94.28;;
43385;Laerm;28988;48.042;7.584;2023-03-12T14:28:58;84.24;-57.68;94.84;;
43385;Laerm;28988;48.042;7.584;2023-03-12T14:31:24;84.25;-23.73;94.42;;
43385;Laerm;28988;48.042;7.584;2023-03-12T14:36:19;84.27;-57.68;95.53;;
43385;Laerm;28988;48.042;7.584;2023-03-12T14:38:46;84.31;-23.73;95.74;;
43385;Laerm;28988;48.042;7.584;2023-03-12T14:41:20;84.30;-57.68;95.13;;
43385;Laerm;28988;48.042;7.584;2023-03-12T14:43:50;84.30;-23.73;95.43;;
43385;Laerm;28988;48.042;7.584;2023-03-12T14:46:22;84.31;-33.54;95.00;;
43385;Laerm;28988;48.042;7.584;2023-03-12T14:48:49;84.29;-23.73;95.23;;
43385;Laerm;28988;48.042;7.584;2023-03-12T14:51:25;84.31;-23.75;95.64;;